createdAt,value
2019-01-11T00:01:03.805Z,3.70
2019-01-11T00:03:52.628Z,3.60
2019-01-11T00:06:41.412Z,3.60
2019-01-11T00:09:30.329Z,3.50
2019-01-11T00:12:19.449Z,3.50
2019-01-11T00:15:08.744Z,3.60
2019-01-11T00:17:38.931Z,3.60
2019-01-11T00:20:09.109Z,3.60
2019-01-11T00:22:39.229Z,3.50
2019-01-11T00:25:16.936Z,3.60
2019-01-11T00:28:06.449Z,3.50
2019-01-11T00:30:55.612Z,3.50
2019-01-11T00:33:44.921Z,3.40
2019-01-11T00:36:34.120Z,3.40
2019-01-11T00:39:23.249Z,3.30
2019-01-11T00:42:12.484Z,3.20
2019-01-11T00:45:01.490Z,3.10
2019-01-11T00:47:44.221Z,3.10
2019-01-11T00:50:33.412Z,3.20
2019-01-11T00:53:22.636Z,3.20
2019-01-11T00:56:12.096Z,3.20
2019-01-11T00:59:00.908Z,3.20
2019-01-11T01:01:49.543Z,3.20
2019-01-11T01:04:38.386Z,3.20
2019-01-11T01:07:27.612Z,3.20
2019-01-11T01:10:16.660Z,3.20
2019-01-11T01:13:05.878Z,3.20
2019-01-11T01:15:54.656Z,3.20
2019-01-11T01:18:43.811Z,3.10
2019-01-11T01:21:32.474Z,3.10
2019-01-11T01:24:21.479Z,3.10
2019-01-11T01:27:10.599Z,3.10
2019-01-11T01:29:46.975Z,3.10
2019-01-11T01:32:35.443Z,3.00
2019-01-11T01:35:25.879Z,3.00
2019-01-11T01:38:14.194Z,3.00
2019-01-11T01:41:02.878Z,2.90
2019-01-11T01:43:51.566Z,2.90
2019-01-11T01:46:40.476Z,2.80
2019-01-11T01:49:29.493Z,2.90
2019-01-11T01:52:18.057Z,2.90
2019-01-11T01:55:08.344Z,2.90
2019-01-11T01:57:58.062Z,2.90
2019-01-11T02:00:46.908Z,2.90
2019-01-11T02:03:35.786Z,2.90
2019-01-11T02:06:24.388Z,2.90
2019-01-11T02:09:13.341Z,2.90
2019-01-11T02:11:52.931Z,2.90
2019-01-11T02:14:42.252Z,2.80
2019-01-11T02:17:31.532Z,2.90
2019-01-11T02:20:20.390Z,2.90
2019-01-11T02:23:09.602Z,2.90
2019-01-11T02:25:57.921Z,2.70
2019-01-11T02:28:46.949Z,2.70
2019-01-11T02:31:36.282Z,2.60
2019-01-11T02:34:25.158Z,2.70
2019-01-11T02:37:14.080Z,2.70
2019-01-11T02:40:03.558Z,2.60
2019-01-11T02:42:52.509Z,2.60
2019-01-11T02:45:41.114Z,2.60
2019-01-11T02:48:29.632Z,2.60
2019-01-11T02:51:18.870Z,2.50
2019-01-11T02:53:56.190Z,2.60
2019-01-11T02:56:44.462Z,2.70
2019-01-11T02:59:33.495Z,2.60
2019-01-11T03:02:22.550Z,2.60
2019-01-11T03:05:11.682Z,2.60
2019-01-11T03:08:00.705Z,2.70
2019-01-11T03:10:51.596Z,2.70
2019-01-11T03:13:41.225Z,2.70
2019-01-11T03:16:30.434Z,2.80
2019-01-11T03:19:18.972Z,2.80
2019-01-11T03:22:07.455Z,2.70
2019-01-11T03:24:56.626Z,2.80
2019-01-11T03:27:46.039Z,2.80
2019-01-11T03:30:35.199Z,2.80
2019-01-11T03:33:24.012Z,2.80
2019-01-11T03:36:00.912Z,2.80
2019-01-11T03:38:49.770Z,2.70
2019-01-11T03:41:56.551Z,2.80
2019-01-11T03:44:45.301Z,2.80
2019-01-11T03:47:34.360Z,2.70
2019-01-11T03:50:23.962Z,2.80
2019-01-11T03:53:12.654Z,2.70
2019-01-11T03:56:01.785Z,2.80
2019-01-11T03:58:50.624Z,2.80
2019-01-11T04:01:39.449Z,2.80
2019-01-11T04:04:35.886Z,2.80
2019-01-11T04:07:24.372Z,2.70
2019-01-11T04:10:16.616Z,2.70
2019-01-11T04:13:05.797Z,2.80
2019-01-11T04:15:56.571Z,2.80
2019-01-11T04:18:35.169Z,2.80
2019-01-11T04:21:05.819Z,2.90
2019-01-11T04:23:56.340Z,2.90
2019-01-11T04:26:45.791Z,2.90
2019-01-11T04:29:34.195Z,2.90
2019-01-11T04:32:23.111Z,2.80
2019-01-11T04:35:12.298Z,2.90
2019-01-11T04:38:01.613Z,2.80
2019-01-11T04:40:50.667Z,2.80
2019-01-11T04:43:21.613Z,2.80
2019-01-11T04:45:51.803Z,2.80
2019-01-11T04:48:22.077Z,2.90
2019-01-11T04:50:52.062Z,3.00
2019-01-11T04:53:22.010Z,3.00
2019-01-11T04:56:11.179Z,3.00
2019-01-11T04:59:00.257Z,3.10
2019-01-11T05:01:49.070Z,3.10
2019-01-11T05:04:38.195Z,3.10
2019-01-11T05:07:27.241Z,3.20
2019-01-11T05:10:18.153Z,3.20
2019-01-11T05:13:25.983Z,3.20
2019-01-11T05:16:15.242Z,3.10
2019-01-11T05:19:03.810Z,3.10
2019-01-11T05:21:52.313Z,3.00
2019-01-11T05:24:41.370Z,3.00
2019-01-11T05:27:30.134Z,3.00
2019-01-11T05:30:20.265Z,3.00
2019-01-11T05:33:09.869Z,3.00
2019-01-11T05:35:58.649Z,3.00
2019-01-11T05:38:47.848Z,3.10
2019-01-11T05:41:37.011Z,3.10
2019-01-11T05:44:26.074Z,3.20
2019-01-11T05:47:15.077Z,3.20
2019-01-11T05:50:04.956Z,3.30
2019-01-11T05:52:53.760Z,3.30
2019-01-11T05:55:47.237Z,3.30
2019-01-11T05:58:39.645Z,3.40
2019-01-11T06:01:28.484Z,3.30
2019-01-11T06:04:41.791Z,3.40
2019-01-11T06:07:38.774Z,3.40
2019-01-11T06:10:29.453Z,3.60
2019-01-11T06:13:17.964Z,3.60
2019-01-11T06:16:06.921Z,3.70
2019-01-11T06:18:55.952Z,3.80
2019-01-11T06:21:44.521Z,3.70
2019-01-11T06:24:34.152Z,3.70
2019-01-11T06:27:22.630Z,3.70
2019-01-11T06:30:13.623Z,3.60
2019-01-11T06:33:02.284Z,3.70
2019-01-11T06:35:51.244Z,3.80
2019-01-11T06:38:21.290Z,3.90
2019-01-11T06:41:10.367Z,3.90
2019-01-11T06:43:59.317Z,3.90
2019-01-11T06:46:48.566Z,4.00
2019-01-11T06:49:37.278Z,4.00
2019-01-11T06:52:25.856Z,4.00
2019-01-11T06:55:14.871Z,4.00
2019-01-11T06:58:04.328Z,4.10
2019-01-11T07:00:53.237Z,4.00
2019-01-11T07:03:42.158Z,4.00
2019-01-11T07:06:32.909Z,4.00
2019-01-11T07:09:21.705Z,3.90
2019-01-11T07:12:10.913Z,4.00
2019-01-11T07:14:59.668Z,4.10
2019-01-11T07:17:48.393Z,4.10
2019-01-11T07:20:18.570Z,4.10
2019-01-11T07:23:07.529Z,4.10
2019-01-11T07:25:56.921Z,4.00
2019-01-11T07:28:45.894Z,4.10
2019-01-11T07:31:19.260Z,4.10
2019-01-11T07:33:49.611Z,4.10
2019-01-11T07:36:29.823Z,4.20
2019-01-11T07:39:00.204Z,4.20
2019-01-11T07:41:30.810Z,4.30
2019-01-11T07:44:00.883Z,4.30
2019-01-11T07:46:30.838Z,4.30
2019-01-11T07:49:01.360Z,4.30
2019-01-11T07:51:31.830Z,4.20
2019-01-11T07:54:02.711Z,4.30
2019-01-11T07:56:32.841Z,4.20
2019-01-11T07:59:03.303Z,4.30
2019-01-11T08:01:35.962Z,4.30
2019-01-11T08:04:06.402Z,4.30
2019-01-11T08:06:36.766Z,4.30
2019-01-11T08:09:09.118Z,4.20
2019-01-11T08:11:39.284Z,4.20
2019-01-11T08:14:09.835Z,4.30
2019-01-11T08:16:39.943Z,4.30
2019-01-11T08:19:10.159Z,4.30
2019-01-11T08:21:40.360Z,4.20
2019-01-11T08:24:10.350Z,4.30
2019-01-11T08:26:40.585Z,4.30
2019-01-11T08:29:10.691Z,4.30
2019-01-11T08:31:40.862Z,4.30
2019-01-11T08:34:10.876Z,4.30
2019-01-11T08:36:40.878Z,4.40
2019-01-11T08:39:11.112Z,4.40
2019-01-11T08:41:41.108Z,4.40
2019-01-11T08:44:11.148Z,4.50
2019-01-11T08:46:41.202Z,4.60
2019-01-11T08:49:11.450Z,4.60
2019-01-11T08:51:41.606Z,4.60
2019-01-11T08:54:11.697Z,4.60
2019-01-11T08:56:41.925Z,4.60
2019-01-11T08:59:11.897Z,4.60
2019-01-11T09:01:41.920Z,4.60
2019-01-11T09:04:11.855Z,4.70
2019-01-11T09:06:41.924Z,4.70
2019-01-11T09:09:12.118Z,4.60
2019-01-11T09:11:42.329Z,4.70
2019-01-11T09:14:29.988Z,4.70
2019-01-11T09:17:00.154Z,4.60
2019-01-11T09:19:30.269Z,4.70
2019-01-11T09:22:00.582Z,4.80
2019-01-11T09:24:30.770Z,4.80
2019-01-11T09:27:00.815Z,4.80
2019-01-11T09:29:30.770Z,4.90
2019-01-11T09:32:00.824Z,4.90
2019-01-11T09:34:30.902Z,4.90
2019-01-11T09:37:01.240Z,4.90
2019-01-11T09:39:31.194Z,4.90
2019-01-11T09:42:01.144Z,4.90
2019-01-11T09:44:31.478Z,4.90
2019-01-11T09:47:01.588Z,4.90
2019-01-11T09:49:32.447Z,4.90
2019-01-11T09:52:02.912Z,5.00
2019-01-11T09:54:32.936Z,5.00
2019-01-11T09:57:03.166Z,5.10
2019-01-11T09:59:35.142Z,5.20
2019-01-11T10:02:21.589Z,5.20
2019-01-11T10:04:51.724Z,5.10
2019-01-11T10:07:25.690Z,5.20
2019-01-11T10:09:55.990Z,5.20
2019-01-11T10:12:26.119Z,5.20
2019-01-11T10:14:56.355Z,5.20
2019-01-11T10:17:26.361Z,5.20
2019-01-11T10:19:56.505Z,5.20
2019-01-11T10:22:26.762Z,5.20
2019-01-11T10:24:56.825Z,5.20
2019-01-11T10:27:26.730Z,5.30
2019-01-11T10:29:57.052Z,5.40
2019-01-11T10:32:27.013Z,5.40
2019-01-11T10:34:57.126Z,5.40
2019-01-11T10:37:27.305Z,5.40
2019-01-11T10:39:57.313Z,5.40
2019-01-11T10:42:27.640Z,5.40
2019-01-11T10:44:57.724Z,5.40
2019-01-11T10:47:27.976Z,5.50
2019-01-11T10:49:58.072Z,5.60
2019-01-11T10:52:28.066Z,5.60
2019-01-11T10:54:58.009Z,5.60
2019-01-11T10:57:27.981Z,5.60
2019-01-11T10:59:58.133Z,5.60
2019-01-11T11:02:28.358Z,5.70
2019-01-11T11:04:58.412Z,5.70
2019-01-11T11:07:28.707Z,5.80
2019-01-11T11:09:59.433Z,5.80
2019-01-11T11:12:29.529Z,5.80
2019-01-11T11:15:00.847Z,5.90
2019-01-11T11:17:49.786Z,5.90
2019-01-11T11:20:38.703Z,5.80
2019-01-11T11:23:27.418Z,5.80
2019-01-11T11:26:16.173Z,5.80
2019-01-11T11:29:05.723Z,5.80
2019-01-11T11:31:54.290Z,5.90
2019-01-11T11:34:44.976Z,6.00
2019-01-11T11:37:18.132Z,6.00
2019-01-11T11:40:07.009Z,6.00
2019-01-11T11:42:56.044Z,6.00
2019-01-11T11:45:45.143Z,6.00
2019-01-11T11:48:33.690Z,6.00
2019-01-11T11:51:22.556Z,6.00
2019-01-11T11:54:11.382Z,6.00
2019-01-11T11:57:00.505Z,6.10
2019-01-11T11:59:49.166Z,6.10
2019-01-11T12:02:38.122Z,6.10
2019-01-11T12:05:27.377Z,6.10
2019-01-11T12:08:16.019Z,6.20
2019-01-11T12:11:04.951Z,6.20
2019-01-11T12:13:54.345Z,6.20
2019-01-11T12:16:24.493Z,6.30
2019-01-11T12:18:55.440Z,6.20
2019-01-11T12:21:25.581Z,6.30
2019-01-11T12:23:56.064Z,6.30
2019-01-11T12:26:26.748Z,6.30
2019-01-11T12:28:56.813Z,6.30
2019-01-11T12:31:26.892Z,6.40
2019-01-11T12:33:56.999Z,6.40
2019-01-11T12:36:26.976Z,6.40
2019-01-11T12:38:57.033Z,6.40
2019-01-11T12:41:27.169Z,6.40
2019-01-11T12:43:57.354Z,6.40
2019-01-11T12:46:27.536Z,6.50
2019-01-11T12:48:57.609Z,6.50
2019-01-11T12:51:27.562Z,6.50
2019-01-11T12:53:57.739Z,6.50
2019-01-11T12:56:28.028Z,6.50
2019-01-11T12:58:58.152Z,6.60
2019-01-11T13:01:28.136Z,6.60
2019-01-11T13:03:58.209Z,6.60
2019-01-11T13:06:28.243Z,6.60
2019-01-11T13:08:58.378Z,6.60
2019-01-11T13:11:28.427Z,6.70
2019-01-11T13:13:58.376Z,6.70
2019-01-11T13:16:28.693Z,6.70
2019-01-11T13:18:59.115Z,6.70
2019-01-11T13:21:29.132Z,6.70
2019-01-11T13:23:59.312Z,6.70
2019-01-11T13:26:29.340Z,6.80
2019-01-11T13:28:59.506Z,6.80
2019-01-11T13:31:29.650Z,6.80
2019-01-11T13:34:00.022Z,6.80
2019-01-11T13:36:30.270Z,6.90
2019-01-11T13:39:00.285Z,6.90
2019-01-11T13:41:30.713Z,7.00
2019-01-11T13:44:00.753Z,7.00
2019-01-11T13:46:30.790Z,7.00
2019-01-11T13:49:00.859Z,7.00
2019-01-11T13:51:30.853Z,7.00
2019-01-11T13:54:00.959Z,7.00
2019-01-11T13:56:31.109Z,7.00
2019-01-11T13:59:01.083Z,7.10
2019-01-11T14:01:31.327Z,7.10
2019-01-11T14:04:01.575Z,7.10
2019-01-11T14:06:32.779Z,7.10
2019-01-11T14:09:02.914Z,7.10
2019-01-11T14:11:33.729Z,7.10
2019-01-11T14:14:03.888Z,7.20
2019-01-11T14:16:34.314Z,7.20
2019-01-11T14:19:04.444Z,7.30
2019-01-11T14:21:34.716Z,7.30
2019-01-11T14:24:04.847Z,7.30
2019-01-11T14:26:34.835Z,7.30
2019-01-11T14:29:05.447Z,7.40
2019-01-11T14:31:35.495Z,7.40
2019-01-11T14:34:05.946Z,7.40
2019-01-11T14:36:36.206Z,7.40
2019-01-11T14:39:09.010Z,7.40
2019-01-11T14:41:39.314Z,7.50
2019-01-11T14:44:09.414Z,7.50
2019-01-11T14:46:39.512Z,7.50
2019-01-11T14:49:09.757Z,7.50
2019-01-11T14:51:39.852Z,7.50
2019-01-11T14:54:09.940Z,7.50
2019-01-11T14:56:40.339Z,7.50
2019-01-11T14:59:10.630Z,7.50
2019-01-11T15:01:40.681Z,7.50
2019-01-11T15:04:10.721Z,7.50
2019-01-11T15:06:40.902Z,7.50
2019-01-11T15:09:11.582Z,7.60
2019-01-11T15:11:41.920Z,7.60
2019-01-11T15:14:12.040Z,7.60
2019-01-11T15:16:42.089Z,7.60
2019-01-11T15:19:15.663Z,7.60
2019-01-11T15:21:46.064Z,7.60
2019-01-11T15:24:17.867Z,7.60
2019-01-11T15:26:48.012Z,7.60
2019-01-11T15:29:18.178Z,7.60
2019-01-11T15:31:48.219Z,7.60
2019-01-11T15:34:18.384Z,7.60
2019-01-11T15:36:48.448Z,7.60
2019-01-11T15:39:18.743Z,7.50
2019-01-11T15:41:48.891Z,7.50
2019-01-11T15:44:19.006Z,7.50
2019-01-11T15:46:49.332Z,7.50
2019-01-11T15:49:19.660Z,7.50
2019-01-11T15:51:49.666Z,7.50
2019-01-11T15:54:20.940Z,7.50
2019-01-11T15:56:50.947Z,7.50
2019-01-11T15:59:20.920Z,7.50
2019-01-11T16:01:54.873Z,7.50
2019-01-11T16:04:24.846Z,7.50
2019-01-11T16:06:55.390Z,7.50
2019-01-11T16:09:56.921Z,7.50
2019-01-11T16:12:50.868Z,7.50
2019-01-11T16:15:42.545Z,7.50
2019-01-11T16:18:17.303Z,7.50
2019-01-11T16:20:47.675Z,7.50
2019-01-11T16:23:18.023Z,7.50
2019-01-11T16:25:47.992Z,7.50
2019-01-11T16:28:18.454Z,7.50
2019-01-11T16:30:48.433Z,7.50
2019-01-11T16:33:37.490Z,7.50
2019-01-11T16:36:26.582Z,7.50
2019-01-11T16:39:16.064Z,7.50
2019-01-11T16:42:05.188Z,7.50
2019-01-11T16:44:53.821Z,7.50
2019-01-11T16:47:43.064Z,7.50
2019-01-11T16:50:32.250Z,7.50
2019-01-11T16:53:21.273Z,7.50
2019-01-11T16:56:10.917Z,7.50
2019-01-11T16:59:00.099Z,7.50
2019-01-11T17:01:49.209Z,7.50
2019-01-11T17:04:38.749Z,7.50
2019-01-11T17:07:27.872Z,7.40
2019-01-11T17:10:16.973Z,7.50
2019-01-11T17:12:46.936Z,7.50
2019-01-11T17:15:36.264Z,7.40
2019-01-11T17:18:25.128Z,7.40
2019-01-11T17:21:13.829Z,7.40
2019-01-11T17:24:02.720Z,7.50
2019-01-11T17:26:51.978Z,7.40
2019-01-11T17:29:46.979Z,7.40
2019-01-11T17:32:30.949Z,7.40
2019-01-11T17:35:19.938Z,7.40
2019-01-11T17:38:08.376Z,7.40
2019-01-11T17:40:44.658Z,7.40
2019-01-11T17:43:34.002Z,7.40
2019-01-11T17:46:22.774Z,7.40
2019-01-11T17:49:11.973Z,7.40
2019-01-11T17:52:01.065Z,7.40
2019-01-11T17:54:49.837Z,7.40
2019-01-11T17:57:19.868Z,7.40
2019-01-11T18:00:12.225Z,7.40
2019-01-11T18:02:42.413Z,7.40
2019-01-11T18:05:21.775Z,7.40
2019-01-11T18:07:51.910Z,7.40
2019-01-11T18:10:22.259Z,7.40
2019-01-11T18:12:52.258Z,7.30
2019-01-11T18:15:23.653Z,7.30
2019-01-11T18:17:53.966Z,7.30
2019-01-11T18:20:26.494Z,7.30
2019-01-11T18:22:56.873Z,7.30
2019-01-11T18:25:27.072Z,7.30
2019-01-11T18:27:57.598Z,7.30
2019-01-11T18:30:27.695Z,7.40
2019-01-11T18:32:57.853Z,7.40
2019-01-11T18:35:28.316Z,7.40
2019-01-11T18:37:58.441Z,7.30
2019-01-11T18:40:28.814Z,7.30
2019-01-11T18:42:59.325Z,7.30
2019-01-11T18:45:29.540Z,7.30
2019-01-11T18:48:00.073Z,7.30
2019-01-11T18:50:30.558Z,7.30
2019-01-11T18:53:01.210Z,7.30
2019-01-11T18:55:31.849Z,7.30
2019-01-11T18:58:02.503Z,7.40
2019-01-11T19:00:33.113Z,7.30
2019-01-11T19:03:03.989Z,7.30
2019-01-11T19:05:34.977Z,7.30
2019-01-11T19:08:24.000Z,7.30
2019-01-11T19:11:13.173Z,7.30
2019-01-11T19:13:43.169Z,7.30
2019-01-11T19:16:13.336Z,7.30
2019-01-11T19:19:03.030Z,7.30
2019-01-11T19:21:52.493Z,7.30
2019-01-11T19:24:41.365Z,7.30
2019-01-11T19:27:30.054Z,7.30
2019-01-11T19:30:24.085Z,7.30
2019-01-11T19:33:13.401Z,7.30
2019-01-11T19:36:02.851Z,7.30
2019-01-11T19:38:52.061Z,7.30
2019-01-11T19:41:41.377Z,7.20
2019-01-11T19:44:11.741Z,7.20
2019-01-11T19:46:42.448Z,7.20
2019-01-11T19:49:12.866Z,7.20
2019-01-11T19:51:43.295Z,7.20
2019-01-11T19:54:13.952Z,7.20
2019-01-11T19:56:43.998Z,7.20
2019-01-11T19:59:14.613Z,7.20
2019-01-11T20:01:44.921Z,7.20
2019-01-11T20:04:15.397Z,7.20
2019-01-11T20:07:04.339Z,7.20
2019-01-11T20:09:53.680Z,7.20
2019-01-11T20:12:42.778Z,7.20
2019-01-11T20:15:32.156Z,7.20
2019-01-11T20:18:20.892Z,7.20
2019-01-11T20:21:09.931Z,7.20
2019-01-11T20:23:59.466Z,7.20
2019-01-11T20:26:48.483Z,7.20
2019-01-11T20:29:37.577Z,7.20
2019-01-11T20:32:26.907Z,7.20
2019-01-11T20:35:15.621Z,7.20
2019-01-11T20:38:04.972Z,7.20
2019-01-11T20:40:54.113Z,7.20
2019-01-11T20:43:43.264Z,7.10
2019-01-11T20:46:32.861Z,7.10
2019-01-11T20:49:22.676Z,7.10
2019-01-11T20:52:11.889Z,7.10
2019-01-11T20:55:01.008Z,7.10
2019-01-11T20:57:50.408Z,7.10
2019-01-11T21:00:40.631Z,7.10
2019-01-11T21:03:29.853Z,7.10
2019-01-11T21:06:19.413Z,7.10
2019-01-11T21:09:09.911Z,7.00
2019-01-11T21:11:58.579Z,7.00
2019-01-11T21:14:47.487Z,7.10
2019-01-11T21:17:36.464Z,7.00
2019-01-11T21:20:26.338Z,7.00
2019-01-11T21:23:15.830Z,7.00
2019-01-11T21:26:05.199Z,7.00
2019-01-11T21:28:54.806Z,7.00
2019-01-11T21:31:43.634Z,7.00
2019-01-11T21:34:33.583Z,7.00
2019-01-11T21:37:25.207Z,7.00
2019-01-11T21:40:16.462Z,7.10
2019-01-11T21:43:05.345Z,7.10
2019-01-11T21:45:54.511Z,7.00
2019-01-11T21:48:43.950Z,7.00
2019-01-11T21:51:33.399Z,7.00
2019-01-11T21:54:22.770Z,7.10
2019-01-11T21:57:12.036Z,7.00
2019-01-11T22:00:01.234Z,7.00
2019-01-11T22:02:50.041Z,7.00
2019-01-11T22:05:39.398Z,7.00
2019-01-11T22:08:28.279Z,7.10
2019-01-11T22:10:58.860Z,7.00
2019-01-11T22:13:47.962Z,7.00
2019-01-11T22:16:37.222Z,7.10
2019-01-11T22:19:26.107Z,7.00
2019-01-11T22:21:56.446Z,7.00
2019-01-11T22:24:45.672Z,7.00
2019-01-11T22:27:34.974Z,7.00
2019-01-11T22:30:30.234Z,7.00
2019-01-11T22:33:14.591Z,7.00
2019-01-11T22:36:04.190Z,7.00
2019-01-11T22:38:53.044Z,7.00
2019-01-11T22:41:42.434Z,7.00
2019-01-11T22:44:31.611Z,7.00
2019-01-11T22:47:20.425Z,6.90
2019-01-11T22:50:10.498Z,6.90
2019-01-11T22:52:59.879Z,7.00
2019-01-11T22:55:48.903Z,6.90
2019-01-11T22:58:38.460Z,6.90
2019-01-11T23:01:59.072Z,6.90
2019-01-11T23:04:48.304Z,6.90
2019-01-11T23:07:47.145Z,6.90
2019-01-11T23:11:12.218Z,6.90
2019-01-11T23:14:01.428Z,6.90
2019-01-11T23:17:21.336Z,6.80
2019-01-11T23:20:12.791Z,6.90
2019-01-11T23:23:01.634Z,6.80
2019-01-11T23:25:50.948Z,6.80
2019-01-11T23:28:39.733Z,6.80
2019-01-11T23:31:28.358Z,6.80
2019-01-11T23:34:17.126Z,6.80
2019-01-11T23:37:06.520Z,6.90
2019-01-11T23:39:55.893Z,7.00
2019-01-11T23:42:44.434Z,7.00
2019-01-11T23:45:33.829Z,7.00
2019-01-11T23:48:22.916Z,7.00
2019-01-11T23:51:12.154Z,7.00
2019-01-11T23:54:01.059Z,7.00
2019-01-11T23:56:50.406Z,7.00
2019-01-11T23:59:39.859Z,7.00
